Time;durP1;ratioP1;P1;durP2;ratioP2;P2;SDS_P1;SDS_P2;PMS_P1;PMS_P2;Temp;Humidity;BMP_temperature;BMP_pressure;BME280_temperature;BME280_humidity;BME280_pressure;Samples;Min_cycle;Max_cycle;Signal;HPM_P1;HPM_P2
2023/09/08 00:00:09;;;;;;;5.07;4.53;;;;;;;;;;4949147;28;20210;-62
2023/09/08 00:02:36;;;;;;;5.25;4.70;;;;;;;;;;4950018;28;20233;-63
2023/09/08 00:05:04;;;;;;;5.20;4.90;;;;;;;;;;4949137;28;20207;-64
2023/09/08 00:07:31;;;;;;;6.18;5.05;;;;;;;;;;4955819;28;20221;-63
2023/09/08 00:09:58;;;;;;;5.20;4.80;;;;;;;;;;4957375;28;20207;-63
2023/09/08 00:12:25;;;;;;;5.18;4.78;;;;;;;;;;4948228;28;20643;-63
2023/09/08 00:14:52;;;;;;;5.45;5.03;;;;;;;;;;4949206;28;20237;-63
2023/09/08 00:17:20;;;;;;;6.93;4.75;;;;;;;;;;4945454;28;20227;-63
2023/09/08 00:19:47;;;;;;;5.30;4.90;;;;;;;;;;4955216;28;20203;-63
2023/09/08 00:22:14;;;;;;;5.07;4.68;;;;;;;;;;4944765;28;20215;-63
2023/09/08 00:24:41;;;;;;;5.47;5.07;;;;;;;;;;4955773;28;20222;-63
2023/09/08 00:27:09;;;;;;;10.10;6.00;;;;;;;;;;4946017;28;20707;-63
2023/09/08 00:29:36;;;;;;;6.03;5.47;;;;;;;;;;4945047;28;20293;-63
2023/09/08 00:32:03;;;;;;;5.72;5.15;;;;;;;;;;4947927;28;20251;-63
2023/09/08 00:34:31;;;;;;;6.80;5.65;;;;;;;;;;4949770;28;20764;-62
2023/09/08 00:37:00;;;;;;;5.90;5.40;;;;;;;;;;4948561;28;20234;-62
2023/09/08 00:39:27;;;;;;;9.68;5.32;;;;;;;;;;4961490;28;20763;-63
2023/09/08 00:41:54;;;;;;;5.68;5.18;;;;;;;;;;4953086;28;20206;-62
2023/09/08 00:44:21;;;;;;;6.05;4.97;;;;;;;;;;4962313;28;20210;-63
2023/09/08 00:46:48;;;;;;;5.25;4.53;;;;;;;;;;4955810;28;20211;-63
2023/09/08 00:49:15;;;;;;;6.72;5.38;;;;;;;;;;4956676;28;20210;-63
2023/09/08 00:51:44;;;;;;;5.30;4.95;;;;;;;;;;4950035;28;20215;-63
2023/09/08 00:54:11;;;;;;;5.80;5.30;;;;;;;;;;4946909;28;20211;-63
2023/09/08 00:56:38;;;;;;;5.38;4.97;;;;;;;;;;4950822;28;20749;-63
2023/09/08 00:59:06;;;;;;;5.30;4.90;;;;;;;;;;4961320;28;20225;-62
2023/09/08 01:01:34;;;;;;;5.32;4.85;;;;;;;;;;4941582;28;20207;-62
2023/09/08 01:04:01;;;;;;;5.35;4.85;;;;;;;;;;4941397;29;20225;-62
2023/09/08 01:06:29;;;;;;;6.88;4.97;;;;;;;;;;4950556;28;20214;-62
2023/09/08 01:08:57;;;;;;;6.80;5.28;;;;;;;;;;4966417;28;20608;-63
2023/09/08 01:11:24;;;;;;;7.50;5.55;;;;;;;;;;4953543;28;20207;-63
2023/09/08 01:13:51;;;;;;;5.93;5.43;;;;;;;;;;4950590;28;20886;-62
2023/09/08 01:16:18;;;;;;;5.70;5.25;;;;;;;;;;4962455;28;20206;-63
2023/09/08 01:18:48;;;;;;;5.97;5.47;;;;;;;;;;4966823;28;20226;-63
2023/09/08 01:21:24;;;;;;;5.45;4.95;;;;;;;;;;4965344;28;20210;-62
2023/09/08 01:23:58;;;;;;;5.05;4.72;;;;;;;;;;4945843;28;20214;-63
2023/09/08 01:26:28;;;;;;;5.10;4.80;;;;;;;;;;4947258;28;20213;-63
2023/09/08 01:28:57;;;;;;;5.75;5.10;;;;;;;;;;4956050;28;20248;-62
2023/09/08 01:31:24;;;;;;;5.20;4.80;;;;;;;;;;4959517;28;20210;-64
2023/09/08 01:33:51;;;;;;;5.28;4.82;;;;;;;;;;4952362;28;20215;-64
2023/09/08 01:36:18;;;;;;;4.85;4.45;;;;;;;;;;4960483;28;20207;-62
2023/09/08 01:38:45;;;;;;;5.38;4.85;;;;;;;;;;4947119;28;20226;-62
2023/09/08 01:41:12;;;;;;;5.18;4.68;;;;;;;;;;4956560;28;20241;-62
2023/09/08 01:43:41;;;;;;;4.80;4.40;;;;;;;;;;4960543;28;20218;-62
2023/09/08 01:46:08;;;;;;;6.00;4.82;;;;;;;;;;4944073;28;20198;-62
2023/09/08 01:48:35;;;;;;;6.68;5.30;;;;;;;;;;4949290;28;20661;-61
2023/09/08 01:51:03;;;;;;;4.70;4.40;;;;;;;;;;4945794;28;20215;-62
2023/09/08 01:53:30;;;;;;;6.53;4.53;;;;;;;;;;4958412;28;20207;-62
2023/09/08 01:55:57;;;;;;;5.00;4.60;;;;;;;;;;4948234;28;20207;-62
2023/09/08 01:58:24;;;;;;;4.97;4.57;;;;;;;;;;4948817;28;20229;-64
2023/09/08 02:00:53;;;;;;;8.65;4.47;;;;;;;;;;4963744;28;20220;-62
2023/09/08 02:03:20;;;;;;;5.00;4.65;;;;;;;;;;4947436;28;20222;-62
2023/09/08 02:05:47;;;;;;;5.10;4.30;;;;;;;;;;4947513;28;20559;-64
2023/09/08 02:08:14;;;;;;;4.93;4.55;;;;;;;;;;4946308;28;20566;-64
2023/09/08 02:10:41;;;;;;;4.53;4.22;;;;;;;;;;4965454;28;20214;-64
2023/09/08 02:13:08;;;;;;;6.40;4.60;;;;;;;;;;4950070;28;20210;-64
2023/09/08 02:15:37;;;;;;;6.90;5.88;;;;;;;;;;4957304;28;20275;-63
2023/09/08 02:18:05;;;;;;;4.97;4.65;;;;;;;;;;4961140;28;20325;-63
2023/09/08 02:20:32;;;;;;;5.10;4.70;;;;;;;;;;4954761;28;20672;-62
2023/09/08 02:23:05;;;;;;;3.95;3.75;;;;;;;;;;4943558;28;20218;-62
2023/09/08 02:25:32;;;;;;;6.28;4.75;;;;;;;;;;4958312;28;20206;-62
2023/09/08 02:27:59;;;;;;;4.40;4.10;;;;;;;;;;4959490;28;20206;-63
2023/09/08 02:30:26;;;;;;;4.95;4.55;;;;;;;;;;4954068;28;20207;-63
2023/09/08 02:32:54;;;;;;;4.72;4.35;;;;;;;;;;4964414;28;20638;-62
2023/09/08 02:35:23;;;;;;;4.88;4.47;;;;;;;;;;4966163;28;20290;-62
2023/09/08 02:37:50;;;;;;;4.60;4.20;;;;;;;;;;4932406;28;20620;-63
2023/09/08 02:40:17;;;;;;;4.97;4.40;;;;;;;;;;4954983;28;20245;-63
2023/09/08 02:42:44;;;;;;;4.85;4.50;;;;;;;;;;4952239;28;20214;-62
2023/09/08 02:45:11;;;;;;;4.90;4.50;;;;;;;;;;4950404;28;20199;-62
2023/09/08 02:47:38;;;;;;;5.18;4.28;;;;;;;;;;4965942;28;20206;-63
2023/09/08 02:50:06;;;;;;;4.65;4.25;;;;;;;;;;4953090;28;20219;-64
2023/09/08 02:52:34;;;;;;;5.25;4.30;;;;;;;;;;4949017;28;20203;-62
2023/09/08 02:55:01;;;;;;;6.70;4.43;;;;;;;;;;4951810;28;20204;-62
2023/09/08 02:57:28;;;;;;;6.25;4.40;;;;;;;;;;4947539;28;20234;-62
2023/09/08 02:59:56;;;;;;;5.47;4.60;;;;;;;;;;4945364;28;20226;-62
2023/09/08 03:02:23;;;;;;;4.70;4.40;;;;;;;;;;4944897;28;20302;-62
2023/09/08 03:04:51;;;;;;;4.70;4.30;;;;;;;;;;4946299;28;20298;-62
2023/09/08 03:07:18;;;;;;;6.13;4.82;;;;;;;;;;4948660;28;20310;-63
2023/09/08 03:09:47;;;;;;;4.95;4.53;;;;;;;;;;4956315;28;20676;-63
2023/09/08 03:12:14;;;;;;;5.05;4.63;;;;;;;;;;4948219;28;20601;-62
2023/09/08 03:14:41;;;;;;;4.85;4.55;;;;;;;;;;4954398;28;20213;-62
2023/09/08 03:17:08;;;;;;;4.50;4.20;;;;;;;;;;4960751;28;20207;-62
2023/09/08 03:19:35;;;;;;;5.47;4.15;;;;;;;;;;4950152;28;20225;-62
2023/09/08 03:22:02;;;;;;;4.50;4.20;;;;;;;;;;4962802;28;20214;-61
2023/09/08 03:24:29;;;;;;;4.75;4.35;;;;;;;;;;4965528;28;20207;-62
2023/09/08 03:26:57;;;;;;;4.85;4.50;;;;;;;;;;4960475;28;20222;-62
2023/09/08 03:29:24;;;;;;;4.88;4.57;;;;;;;;;;4948164;28;20215;-62
2023/09/08 03:31:51;;;;;;;6.57;4.28;;;;;;;;;;4960043;28;20214;-61
2023/09/08 03:34:20;;;;;;;5.47;3.97;;;;;;;;;;4954758;28;20662;-62
2023/09/08 03:36:47;;;;;;;5.15;4.65;;;;;;;;;;4944001;28;20765;-62
2023/09/08 03:39:14;;;;;;;7.75;4.53;;;;;;;;;;4949187;28;20649;-62
2023/09/08 03:41:41;;;;;;;4.78;4.20;;;;;;;;;;4956522;28;20243;-61
2023/09/08 03:44:09;;;;;;;4.93;4.53;;;;;;;;;;4944607;28;20211;-61
2023/09/08 03:46:37;;;;;;;5.00;4.50;;;;;;;;;;4945164;28;20550;-62
2023/09/08 03:49:04;;;;;;;5.10;4.53;;;;;;;;;;4946557;28;20211;-61
2023/09/08 03:51:31;;;;;;;9.10;4.18;;;;;;;;;;4950776;28;20214;-61
2023/09/08 03:53:58;;;;;;;4.43;4.07;;;;;;;;;;4949543;28;20215;-62
2023/09/08 03:56:25;;;;;;;4.78;4.43;;;;;;;;;;4949154;28;20246;-62
2023/09/08 03:58:52;;;;;;;4.72;4.32;;;;;;;;;;4951158;28;20233;-62
2023/09/08 04:01:21;;;;;;;4.47;4.20;;;;;;;;;;4947323;28;20211;-61
2023/09/08 04:03:48;;;;;;;4.95;4.55;;;;;;;;;;4956806;28;20210;-62
2023/09/08 04:06:15;;;;;;;5.10;4.47;;;;;;;;;;4966304;28;20210;-62
2023/09/08 04:08:42;;;;;;;4.40;4.10;;;;;;;;;;4961127;28;20201;-62
2023/09/08 04:11:09;;;;;;;5.07;4.60;;;;;;;;;;4955356;28;20444;-61
2023/09/08 04:13:36;;;;;;;4.93;4.30;;;;;;;;;;4948184;28;20207;-61
2023/09/08 04:16:03;;;;;;;5.32;4.03;;;;;;;;;;4956454;28;20203;-61
2023/09/08 04:18:31;;;;;;;4.97;4.57;;;;;;;;;;4947396;28;20231;-64
2023/09/08 04:20:58;;;;;;;5.78;4.47;;;;;;;;;;4960778;28;20704;-64
2023/09/08 04:23:25;;;;;;;4.28;3.88;;;;;;;;;;4944435;28;20209;-63
2023/09/08 04:25:52;;;;;;;4.65;4.38;;;;;;;;;;4944360;28;20226;-64
2023/09/08 04:28:19;;;;;;;4.68;4.25;;;;;;;;;;4946080;28;20230;-64
2023/09/08 04:30:46;;;;;;;5.30;4.40;;;;;;;;;;4948861;28;20262;-63
2023/09/08 04:33:13;;;;;;;4.35;4.07;;;;;;;;;;4958570;28;20247;-64
2023/09/08 04:35:42;;;;;;;4.47;4.10;;;;;;;;;;4954329;28;20693;-64
2023/09/08 04:38:09;;;;;;;5.35;4.53;;;;;;;;;;4964951;28;20234;-64
2023/09/08 04:40:36;;;;;;;5.20;4.53;;;;;;;;;;4951873;28;20241;-64
2023/09/08 04:43:03;;;;;;;5.13;4.63;;;;;;;;;;4962628;28;20257;-64
2023/09/08 04:45:30;;;;;;;5.38;4.97;;;;;;;;;;4961197;28;20293;-64
2023/09/08 04:47:57;;;;;;;4.63;4.32;;;;;;;;;;4957472;28;21845;-64
2023/09/08 04:50:24;;;;;;;4.85;4.53;;;;;;;;;;4959114;28;20213;-63
2023/09/08 04:52:53;;;;;;;4.65;4.25;;;;;;;;;;4967645;28;20673;-63
2023/09/08 04:55:20;;;;;;;6.15;4.30;;;;;;;;;;4948688;28;20218;-61
2023/09/08 04:57:47;;;;;;;8.27;4.75;;;;;;;;;;4943790;28;20338;-60
2023/09/08 05:00:14;;;;;;;5.10;4.80;;;;;;;;;;4945927;28;20222;-63
2023/09/08 05:02:41;;;;;;;4.60;4.30;;;;;;;;;;4950268;28;20682;-63
2023/09/08 05:05:09;;;;;;;6.72;4.72;;;;;;;;;;4954870;28;20209;-61
2023/09/08 05:07:36;;;;;;;4.90;4.25;;;;;;;;;;4957870;28;20234;-61
2023/09/08 05:10:04;;;;;;;4.47;4.07;;;;;;;;;;4951065;28;20790;-61
2023/09/08 05:12:31;;;;;;;4.75;4.43;;;;;;;;;;4947991;28;20207;-61
2023/09/08 05:15:05;;;;;;;4.85;4.45;;;;;;;;;;4948148;29;20215;-61
2023/09/08 05:17:33;;;;;;;5.93;4.68;;;;;;;;;;4951039;28;20212;-61
2023/09/08 05:20:00;;;;;;;6.50;4.22;;;;;;;;;;4947262;28;20250;-61
2023/09/08 05:22:27;;;;;;;4.82;4.43;;;;;;;;;;4954641;28;20665;-61
2023/09/08 05:24:54;;;;;;;4.75;4.35;;;;;;;;;;4951073;28;20211;-62
2023/09/08 05:27:22;;;;;;;5.85;4.38;;;;;;;;;;4943126;28;20583;-61
2023/09/08 05:29:49;;;;;;;4.45;3.88;;;;;;;;;;4948921;28;20755;-61
2023/09/08 05:32:16;;;;;;;6.18;4.80;;;;;;;;;;4947342;28;20310;-61
2023/09/08 05:34:43;;;;;;;9.60;4.40;;;;;;;;;;4954309;28;20208;-61
2023/09/08 05:37:10;;;;;;;4.60;4.30;;;;;;;;;;4950708;28;20209;-60
2023/09/08 05:39:38;;;;;;;4.95;4.53;;;;;;;;;;4951895;28;20652;-59
2023/09/08 05:42:05;;;;;;;4.03;3.83;;;;;;;;;;4949049;28;20225;-60
2023/09/08 05:44:33;;;;;;;4.95;4.50;;;;;;;;;;4966207;28;20747;-60
2023/09/08 05:47:00;;;;;;;4.30;4.00;;;;;;;;;;4947414;28;20214;-60
2023/09/08 05:49:27;;;;;;;5.00;4.45;;;;;;;;;;4945776;28;20207;-59
2023/09/08 05:51:54;;;;;;;4.85;4.45;;;;;;;;;;4948423;28;20210;-60
2023/09/08 05:54:21;;;;;;;4.40;4.10;;;;;;;;;;4959763;28;20203;-60
2023/09/08 05:56:48;;;;;;;4.47;4.18;;;;;;;;;;4949638;28;20700;-59
2023/09/08 05:59:15;;;;;;;5.55;4.35;;;;;;;;;;4945399;28;20234;-60
2023/09/08 06:01:44;;;;;;;4.60;4.30;;;;;;;;;;4957835;28;20211;-60
2023/09/08 06:04:11;;;;;;;4.57;4.22;;;;;;;;;;4958225;28;20258;-60
2023/09/08 06:06:38;;;;;;;5.78;4.47;;;;;;;;;;4953442;28;20258;-60
2023/09/08 06:09:08;;;;;;;4.40;4.10;;;;;;;;;;4951465;28;20210;-61
2023/09/08 06:11:35;;;;;;;4.47;4.05;;;;;;;;;;4942121;29;20218;-61
2023/09/08 06:14:02;;;;;;;4.80;4.35;;;;;;;;;;4941934;28;20249;-61
2023/09/08 06:16:29;;;;;;;4.15;3.85;;;;;;;;;;4951162;28;20211;-61
2023/09/08 06:18:58;;;;;;;5.38;3.75;;;;;;;;;;4965737;28;20784;-62
2023/09/08 06:21:25;;;;;;;4.68;4.30;;;;;;;;;;4951223;28;20929;-61
2023/09/08 06:23:52;;;;;;;4.90;4.50;;;;;;;;;;4951760;28;20203;-61
2023/09/08 06:26:19;;;;;;;4.85;4.45;;;;;;;;;;4948520;28;20211;-61
2023/09/08 06:28:46;;;;;;;4.35;3.95;;;;;;;;;;4951855;28;20215;-61
2023/09/08 06:31:14;;;;;;;4.97;4.68;;;;;;;;;;4951433;28;20264;-62
2023/09/08 06:33:41;;;;;;;4.50;4.20;;;;;;;;;;4970096;28;20221;-60
2023/09/08 06:36:10;;;;;;;4.43;4.15;;;;;;;;;;4948730;28;20306;-61
2023/09/08 06:38:37;;;;;;;4.53;4.30;;;;;;;;;;4945305;29;20376;-60
2023/09/08 06:41:09;;;;;;;4.78;4.47;;;;;;;;;;4945745;29;20242;-61
2023/09/08 06:43:36;;;;;;;8.30;4.47;;;;;;;;;;4945503;29;20225;-61
2023/09/08 06:46:07;;;;;;;4.25;3.95;;;;;;;;;;4949434;29;20211;-61
2023/09/08 06:48:34;;;;;;;4.07;3.83;;;;;;;;;;4956994;28;20206;-61
2023/09/08 06:51:04;;;;;;;8.80;4.05;;;;;;;;;;4952717;28;20223;-61
2023/09/08 06:53:33;;;;;;;4.20;3.90;;;;;;;;;;4950880;28;20635;-61
2023/09/08 06:56:00;;;;;;;4.30;3.92;;;;;;;;;;4954550;28;20211;-61
2023/09/08 06:58:27;;;;;;;4.28;4.00;;;;;;;;;;4967336;28;20305;-61
2023/09/08 07:00:55;;;;;;;5.38;4.07;;;;;;;;;;4950668;28;20221;-62
2023/09/08 07:03:22;;;;;;;4.55;4.07;;;;;;;;;;4965898;28;20468;-61
2023/09/08 07:05:49;;;;;;;4.35;3.97;;;;;;;;;;4966182;28;20218;-61
2023/09/08 07:08:17;;;;;;;4.45;4.15;;;;;;;;;;4957703;28;20210;-62
2023/09/08 07:10:46;;;;;;;4.35;3.83;;;;;;;;;;4949648;28;20210;-63
2023/09/08 07:13:13;;;;;;;4.85;4.05;;;;;;;;;;4948884;28;20207;-63
2023/09/08 07:15:40;;;;;;;4.20;3.90;;;;;;;;;;4953944;28;20211;-63
2023/09/08 07:18:10;;;;;;;3.92;3.72;;;;;;;;;;4950554;29;20237;-63
2023/09/08 07:20:37;;;;;;;4.10;3.60;;;;;;;;;;4949645;28;20226;-63
2023/09/08 07:23:04;;;;;;;4.03;3.72;;;;;;;;;;4950577;29;20223;-62
2023/09/08 07:25:31;;;;;;;4.97;4.47;;;;;;;;;;4948741;29;20298;-62
2023/09/08 07:28:00;;;;;;;6.65;3.97;;;;;;;;;;4949935;28;20237;-62
2023/09/08 07:30:28;;;;;;;4.07;3.85;;;;;;;;;;4948417;29;20211;-63
2023/09/08 07:32:55;;;;;;;4.30;4.00;;;;;;;;;;4944572;29;20214;-60
2023/09/08 07:35:24;;;;;;;4.03;3.78;;;;;;;;;;4944513;29;20289;-60
2023/09/08 07:37:51;;;;;;;4.30;3.90;;;;;;;;;;4944184;29;20230;-60
2023/09/08 07:40:18;;;;;;;4.13;3.85;;;;;;;;;;4944171;29;20250;-61
2023/09/08 07:42:45;;;;;;;3.88;3.55;;;;;;;;;;4945970;28;20215;-60
2023/09/08 07:45:13;;;;;;;4.22;3.83;;;;;;;;;;4948377;29;20221;-63
2023/09/08 07:47:40;;;;;;;4.18;3.97;;;;;;;;;;4949900;29;20305;-64
2023/09/08 07:50:21;;;;;;;8.52;4.30;;;;;;;;;;4949387;29;20211;-68
2023/09/08 07:52:48;;;;;;;5.18;3.67;;;;;;;;;;4949263;29;20210;-62
2023/09/08 07:55:16;;;;;;;4.20;4.00;;;;;;;;;;4947946;29;20211;-62
2023/09/08 07:57:43;;;;;;;4.65;3.95;;;;;;;;;;4949406;29;20207;-63
2023/09/08 08:00:11;;;;;;;7.10;3.95;;;;;;;;;;4945660;29;20325;-61
2023/09/08 08:02:41;;;;;;;4.20;3.97;;;;;;;;;;4945246;29;20207;-61
2023/09/08 08:05:08;;;;;;;4.00;3.78;;;;;;;;;;4945682;29;20214;-61
2023/09/08 08:07:35;;;;;;;4.25;3.95;;;;;;;;;;4944093;29;20211;-61
2023/09/08 08:10:02;;;;;;;3.60;3.42;;;;;;;;;;4943449;29;20211;-62
2023/09/08 08:12:30;;;;;;;4.60;4.18;;;;;;;;;;4947459;28;20294;-63
2023/09/08 08:14:58;;;;;;;6.63;3.63;;;;;;;;;;4946423;28;20211;-63
2023/09/08 08:17:26;;;;;;;4.57;4.22;;;;;;;;;;4951192;28;20211;-63
2023/09/08 08:19:54;;;;;;;4.10;3.67;;;;;;;;;;4948450;28;20659;-63
2023/09/08 08:22:21;;;;;;;3.90;3.70;;;;;;;;;;4950201;28;20206;-64
2023/09/08 08:24:48;;;;;;;5.68;4.68;;;;;;;;;;4962842;28;20215;-64
2023/09/08 08:27:15;;;;;;;4.05;3.50;;;;;;;;;;4952878;28;20638;-63
2023/09/08 08:29:42;;;;;;;4.15;3.95;;;;;;;;;;4947255;29;20206;-63
2023/09/08 08:32:09;;;;;;;4.15;3.75;;;;;;;;;;4944676;29;20226;-63
2023/09/08 08:34:36;;;;;;;4.95;3.70;;;;;;;;;;4943308;29;20561;-64
2023/09/08 08:37:05;;;;;;;4.40;3.90;;;;;;;;;;4945073;29;20210;-63
2023/09/08 08:39:32;;;;;;;3.92;3.72;;;;;;;;;;4947304;28;20241;-63
2023/09/08 08:41:59;;;;;;;7.15;3.85;;;;;;;;;;4948446;29;20207;-63
2023/09/08 08:44:26;;;;;;;4.68;3.40;;;;;;;;;;4946524;29;20686;-63
2023/09/08 08:46:55;;;;;;;4.43;4.03;;;;;;;;;;4947556;28;20891;-64
2023/09/08 08:49:22;;;;;;;4.53;4.13;;;;;;;;;;4946392;29;20214;-63
2023/09/08 08:51:51;;;;;;;3.72;3.63;;;;;;;;;;4948174;29;20219;-63
2023/09/08 08:54:21;;;;;;;4.35;4.05;;;;;;;;;;4945899;28;20234;-62
2023/09/08 08:56:48;;;;;;;3.80;3.35;;;;;;;;;;4948019;29;20214;-62
2023/09/08 08:59:15;;;;;;;3.90;3.70;;;;;;;;;;4943996;29;20242;-62
2023/09/08 09:01:43;;;;;;;4.15;3.95;;;;;;;;;;4945026;28;20289;-63
2023/09/08 09:04:11;;;;;;;4.55;3.83;;;;;;;;;;4944125;29;20745;-63
2023/09/08 09:06:38;;;;;;;3.97;3.60;;;;;;;;;;4948020;28;20211;-62
2023/09/08 09:09:05;;;;;;;4.18;3.90;;;;;;;;;;4952928;28;20211;-63
2023/09/08 09:11:33;;;;;;;4.55;3.88;;;;;;;;;;4951847;28;20207;-63
2023/09/08 09:14:01;;;;;;;4.07;3.88;;;;;;;;;;4961791;28;20213;-63
2023/09/08 09:16:28;;;;;;;4.50;3.67;;;;;;;;;;4957790;28;20218;-63
2023/09/08 09:18:56;;;;;;;5.38;3.83;;;;;;;;;;4947075;28;20223;-62
2023/09/08 09:21:23;;;;;;;4.10;3.90;;;;;;;;;;4947151;28;20227;-62
2023/09/08 09:23:50;;;;;;;5.28;3.60;;;;;;;;;;4957775;28;20213;-62
2023/09/08 09:26:24;;;;;;;4.47;4.18;;;;;;;;;;4962166;28;20650;-62
2023/09/08 09:28:53;;;;;;;4.10;3.80;;;;;;;;;;4966781;28;20672;-63
2023/09/08 09:31:24;;;;;;;4.00;3.90;;;;;;;;;;4953219;28;20213;-62
2023/09/08 09:34:02;;;;;;;3.90;3.65;;;;;;;;;;4948391;28;20322;-65
2023/09/08 09:36:30;;;;;;;3.83;3.58;;;;;;;;;;4945827;28;20572;-62
2023/09/08 09:38:59;;;;;;;3.70;3.40;;;;;;;;;;4957083;28;20568;-63
2023/09/08 09:41:27;;;;;;;4.28;3.80;;;;;;;;;;4945072;28;20266;-63
2023/09/08 09:43:56;;;;;;;4.20;4.00;;;;;;;;;;4943553;29;20426;-63
2023/09/08 09:46:23;;;;;;;4.30;3.90;;;;;;;;;;4941871;29;20210;-63
2023/09/08 09:48:52;;;;;;;5.95;3.67;;;;;;;;;;4942648;28;20222;-63
2023/09/08 09:51:20;;;;;;;4.10;3.80;;;;;;;;;;4959641;28;20269;-63
2023/09/08 09:53:48;;;;;;;5.13;3.70;;;;;;;;;;4960574;28;20209;-63
2023/09/08 09:56:16;;;;;;;3.97;3.78;;;;;;;;;;4940584;29;20241;-64
2023/09/08 09:58:44;;;;;;;4.93;3.95;;;;;;;;;;4947910;28;20219;-64
2023/09/08 10:01:12;;;;;;;4.70;4.30;;;;;;;;;;4962802;28;20226;-63
2023/09/08 10:03:39;;;;;;;4.18;3.95;;;;;;;;;;4928522;28;20333;-63
2023/09/08 10:06:07;;;;;;;4.72;4.05;;;;;;;;;;4961102;28;20199;-62
2023/09/08 10:08:36;;;;;;;4.60;4.20;;;;;;;;;;4948458;28;20202;-63
2023/09/08 10:11:06;;;;;;;4.28;3.97;;;;;;;;;;4959775;28;20600;-62
2023/09/08 10:13:35;;;;;;;3.80;3.60;;;;;;;;;;4962833;28;20206;-63
2023/09/08 10:16:03;;;;;;;3.80;3.53;;;;;;;;;;4961115;28;20698;-64
2023/09/08 10:18:32;;;;;;;5.45;3.60;;;;;;;;;;4946671;28;20234;-63
2023/09/08 10:21:01;;;;;;;4.00;3.80;;;;;;;;;;4928150;29;20239;-63
2023/09/08 10:23:33;;;;;;;3.75;3.63;;;;;;;;;;4941996;28;20211;-63
2023/09/08 10:26:03;;;;;;;4.50;3.88;;;;;;;;;;4956028;28;20699;-62
2023/09/08 10:28:31;;;;;;;3.80;3.60;;;;;;;;;;4946597;28;20790;-63
2023/09/08 10:30:58;;;;;;;4.07;3.80;;;;;;;;;;4956330;28;20209;-62
2023/09/08 10:33:26;;;;;;;4.78;3.60;;;;;;;;;;4922351;29;20223;-62
2023/09/08 10:35:55;;;;;;;3.58;3.28;;;;;;;;;;4924346;29;20437;-62
2023/09/08 10:38:26;;;;;;;4.10;3.80;;;;;;;;;;4927602;29;20759;-62
2023/09/08 10:40:53;;;;;;;3.85;3.65;;;;;;;;;;4927512;29;20247;-62
2023/09/08 10:43:21;;;;;;;5.95;4.05;;;;;;;;;;4926008;29;20227;-62
2023/09/08 10:45:48;;;;;;;8.15;3.90;;;;;;;;;;4936950;28;20305;-62
2023/09/08 10:48:16;;;;;;;3.72;3.42;;;;;;;;;;4964257;28;20727;-62
2023/09/08 10:50:43;;;;;;;4.10;3.80;;;;;;;;;;4966119;28;20233;-61
2023/09/08 10:53:16;;;;;;;3.75;3.45;;;;;;;;;;4966095;28;20542;-62
2023/09/08 10:55:47;;;;;;;3.88;3.67;;;;;;;;;;4946245;28;20674;-62
2023/09/08 10:58:21;;;;;;;3.63;3.42;;;;;;;;;;4948787;28;20195;-62
2023/09/08 11:00:54;;;;;;;4.15;3.92;;;;;;;;;;4946071;28;20318;-62
2023/09/08 11:03:27;;;;;;;4.72;3.42;;;;;;;;;;4946205;28;20582;-62
2023/09/08 11:05:55;;;;;;;3.75;3.55;;;;;;;;;;4952280;28;20210;-62
2023/09/08 11:08:23;;;;;;;4.07;3.78;;;;;;;;;;4954749;28;20237;-63
2023/09/08 11:10:50;;;;;;;3.33;3.22;;;;;;;;;;4944813;29;20238;-63
2023/09/08 11:13:18;;;;;;;3.58;3.40;;;;;;;;;;4944904;29;20679;-62
2023/09/08 11:15:45;;;;;;;4.80;3.45;;;;;;;;;;4960053;28;20265;-62
2023/09/08 11:18:12;;;;;;;4.82;3.65;;;;;;;;;;4965278;28;20221;-63
2023/09/08 11:20:39;;;;;;;3.78;3.65;;;;;;;;;;4967151;28;20238;-62
2023/09/08 11:23:06;;;;;;;3.65;3.45;;;;;;;;;;4967046;28;20234;-63
2023/09/08 11:25:35;;;;;;;3.83;3.53;;;;;;;;;;4969122;28;20677;-63
2023/09/08 11:28:02;;;;;;;3.80;3.60;;;;;;;;;;4956343;28;20203;-63
2023/09/08 11:30:30;;;;;;;3.10;3.00;;;;;;;;;;4959176;28;20222;-62
2023/09/08 11:32:58;;;;;;;3.83;3.25;;;;;;;;;;4960093;28;20237;-65
2023/09/08 11:35:27;;;;;;;3.53;3.42;;;;;;;;;;4959298;28;20668;-65
2023/09/08 11:37:55;;;;;;;3.80;3.17;;;;;;;;;;4943988;28;20215;-65
2023/09/08 11:40:22;;;;;;;3.75;3.35;;;;;;;;;;4943626;29;20446;-64
2023/09/08 11:42:51;;;;;;;3.83;3.53;;;;;;;;;;4944859;28;20222;-65
2023/09/08 11:45:21;;;;;;;3.42;3.28;;;;;;;;;;4945405;29;20215;-65
2023/09/08 11:47:49;;;;;;;4.93;3.63;;;;;;;;;;4948798;29;20226;-65
2023/09/08 11:50:17;;;;;;;3.90;3.55;;;;;;;;;;4947226;29;20579;-65
2023/09/08 11:52:45;;;;;;;6.00;3.28;;;;;;;;;;4949005;29;20310;-65
2023/09/08 11:55:12;;;;;;;3.88;3.67;;;;;;;;;;4946984;29;20321;-66
2023/09/08 11:57:40;;;;;;;3.83;3.63;;;;;;;;;;4948371;29;20219;-65
2023/09/08 12:00:14;;;;;;;3.22;3.03;;;;;;;;;;4948472;29;20532;-65
2023/09/08 12:02:41;;;;;;;4.28;3.35;;;;;;;;;;4948423;29;20219;-66
2023/09/08 12:05:12;;;;;;;4.38;3.97;;;;;;;;;;4948407;29;20460;-66
2023/09/08 12:07:39;;;;;;;4.10;3.80;;;;;;;;;;4948482;29;20466;-66
2023/09/08 12:10:09;;;;;;;4.30;3.42;;;;;;;;;;4948314;29;20226;-66
2023/09/08 12:12:36;;;;;;;3.42;3.20;;;;;;;;;;4946603;29;20218;-66
2023/09/08 12:15:03;;;;;;;3.38;3.28;;;;;;;;;;4948022;28;20215;-66
2023/09/08 12:17:31;;;;;;;3.47;3.38;;;;;;;;;;4946547;29;20742;-66
2023/09/08 12:19:58;;;;;;;3.20;3.10;;;;;;;;;;4944997;29;20226;-65
2023/09/08 12:22:25;;;;;;;4.13;3.53;;;;;;;;;;4942745;29;20329;-65
2023/09/08 12:24:59;;;;;;;3.47;3.28;;;;;;;;;;4942903;29;20225;-65
2023/09/08 12:27:26;;;;;;;3.33;3.10;;;;;;;;;;4942837;29;20218;-65
2023/09/08 12:29:54;;;;;;;5.55;4.28;;;;;;;;;;4942619;29;20207;-65
2023/09/08 12:32:22;;;;;;;3.97;3.65;;;;;;;;;;4942651;29;20214;-67
2023/09/08 12:34:50;;;;;;;7.93;3.17;;;;;;;;;;4943475;28;20565;-65
2023/09/08 12:37:20;;;;;;;3.05;2.95;;;;;;;;;;4946263;29;20673;-65
2023/09/08 12:39:47;;;;;;;3.30;3.10;;;;;;;;;;4947672;29;20274;-65
2023/09/08 12:42:14;;;;;;;4.63;3.35;;;;;;;;;;4946129;29;20226;-65
2023/09/08 12:44:41;;;;;;;3.53;3.33;;;;;;;;;;4947679;29;20214;-65
2023/09/08 12:47:10;;;;;;;3.70;3.40;;;;;;;;;;4945877;29;20626;-66
2023/09/08 12:49:37;;;;;;;3.35;3.25;;;;;;;;;;4947218;29;20243;-66
2023/09/08 12:52:06;;;;;;;3.70;3.50;;;;;;;;;;4947449;29;20207;-65
2023/09/08 12:54:33;;;;;;;3.92;3.67;;;;;;;;;;4945655;29;20266;-66
2023/09/08 12:57:00;;;;;;;3.58;3.40;;;;;;;;;;4947660;29;20678;-66
2023/09/08 12:59:27;;;;;;;3.78;3.58;;;;;;;;;;4945753;29;20219;-65
2023/09/08 13:01:54;;;;;;;4.95;3.22;;;;;;;;;;4947014;29;20246;-65
2023/09/08 13:04:22;;;;;;;3.55;3.40;;;;;;;;;;4945316;29;20241;-65
2023/09/08 13:06:49;;;;;;;3.47;3.25;;;;;;;;;;4947126;29;20245;-66
2023/09/08 13:09:17;;;;;;;3.28;3.17;;;;;;;;;;4945411;29;20215;-66
2023/09/08 13:11:44;;;;;;;3.22;3.03;;;;;;;;;;4943828;29;20218;-65
2023/09/08 13:14:11;;;;;;;3.63;3.50;;;;;;;;;;4946659;28;20210;-65
2023/09/08 13:16:38;;;;;;;3.17;3.08;;;;;;;;;;4931849;29;20679;-65
2023/09/08 13:19:05;;;;;;;3.53;3.25;;;;;;;;;;4934018;29;20211;-65
2023/09/08 13:21:32;;;;;;;4.82;3.55;;;;;;;;;;4941548;29;20219;-65
2023/09/08 13:23:59;;;;;;;3.92;3.70;;;;;;;;;;4941990;29;20262;-65
2023/09/08 13:26:28;;;;;;;3.45;3.25;;;;;;;;;;4944588;28;20617;-65
2023/09/08 13:28:55;;;;;;;3.60;3.22;;;;;;;;;;4947017;28;20211;-65
2023/09/08 13:31:22;;;;;;;4.03;3.00;;;;;;;;;;4944534;28;20688;-65
2023/09/08 13:33:49;;;;;;;3.25;3.15;;;;;;;;;;4947513;28;20203;-65
2023/09/08 13:36:16;;;;;;;5.10;3.30;;;;;;;;;;4945007;29;20211;-65
2023/09/08 13:38:43;;;;;;;3.50;3.20;;;;;;;;;;4953971;28;20245;-66
2023/09/08 13:41:10;;;;;;;3.60;3.40;;;;;;;;;;4955168;28;21764;-65
2023/09/08 13:43:38;;;;;;;3.72;3.38;;;;;;;;;;4946188;28;20207;-65
2023/09/08 13:46:05;;;;;;;3.03;2.92;;;;;;;;;;4951965;28;20251;-65
2023/09/08 13:48:32;;;;;;;3.50;3.30;;;;;;;;;;4964161;28;20762;-65
2023/09/08 13:51:02;;;;;;;3.72;3.47;;;;;;;;;;4964176;28;20213;-65
2023/09/08 13:53:30;;;;;;;3.45;3.28;;;;;;;;;;4951023;28;20213;-65
2023/09/08 13:55:57;;;;;;;3.30;3.10;;;;;;;;;;4965438;28;20222;-65
2023/09/08 13:58:24;;;;;;;3.50;3.30;;;;;;;;;;4960473;28;20206;-65
2023/09/08 14:00:53;;;;;;;3.58;3.20;;;;;;;;;;4959673;28;20683;-65
2023/09/08 14:03:20;;;;;;;3.28;3.08;;;;;;;;;;4941153;28;20298;-65
2023/09/08 14:05:47;;;;;;;3.95;3.55;;;;;;;;;;4944656;28;20309;-65
2023/09/08 14:08:14;;;;;;;3.40;3.30;;;;;;;;;;4944592;29;20219;-65
2023/09/08 14:10:41;;;;;;;3.58;3.20;;;;;;;;;;4945930;29;20248;-65
2023/09/08 14:13:08;;;;;;;3.00;2.90;;;;;;;;;;4945116;28;20536;-65
2023/09/08 14:15:35;;;;;;;3.42;3.15;;;;;;;;;;4946205;28;20677;-67
2023/09/08 14:18:03;;;;;;;3.50;3.40;;;;;;;;;;4946056;28;20211;-66
2023/09/08 14:20:30;;;;;;;3.38;3.25;;;;;;;;;;4944729;29;20697;-65
2023/09/08 14:22:57;;;;;;;3.40;3.30;;;;;;;;;;4958953;28;20233;-65
2023/09/08 14:25:24;;;;;;;3.75;3.55;;;;;;;;;;4952281;28;20682;-65
2023/09/08 14:27:51;;;;;;;3.40;3.30;;;;;;;;;;4948978;28;20206;-65
2023/09/08 14:30:18;;;;;;;4.47;3.13;;;;;;;;;;4951320;28;20230;-65
2023/09/08 14:32:46;;;;;;;4.03;3.58;;;;;;;;;;4946385;29;20838;-66
2023/09/08 14:35:14;;;;;;;5.95;3.10;;;;;;;;;;4944733;29;20214;-66
2023/09/08 14:37:41;;;;;;;3.40;3.28;;;;;;;;;;4946903;28;20309;-65
2023/09/08 14:40:09;;;;;;;3.50;3.30;;;;;;;;;;4953072;28;20277;-65
2023/09/08 14:42:36;;;;;;;3.30;3.10;;;;;;;;;;4947235;28;20594;-65
2023/09/08 14:45:03;;;;;;;3.53;3.40;;;;;;;;;;4943830;28;20222;-65